<?xml version="1.0" encoding="UTF-8" standalone="no" ?>
<gpx xmlns="http://www.topografix.com/GPX/1/1" xmlns:xsi="http://www.w3.org/2001/XMLSchema-instance" xsi:schemaLocation="http://www.topografix.com/GPX/1/1 http://www.topografix.com/GPX/1/1/gpx.xsd" version="1.1" creator="VisuGPX - https://www.visugpx.com">
  <metadata>
    <name>Barrage Belbezet - Roc de la Vigne</name>
    <desc><![CDATA[2015-11 - Barrage Belbezet - Mas de l'Estagnol - Roc de la Vigne - Mas de l'Arbousier

[b]album[/b] : [url]https://goo.gl/photos/wLbgubhza5aU22J89[/url]
[img]https://1.bp.blogspot.com/-yUkEz9l-zt4/WMrJfvhNofI/AAAAAAAAQyo/Jy1J1VCIXbknJpAOKVeMq4PXkKccQftKgCLcB/s1600/2015-11_barrage-belbezet_estagnol_roc-vigne_mas-arbousier_photos_i.JPG[/img]
[b]Idées de randonnées dans la même région[/b]
Parcours : [url]https://www.visugpx.com/membres/24856/causses/saint-guilhem/[/url]
Photos : [url]https://jcvertygo.blogspot.com/p/saint-guilhem.html[/url]]]></desc>
  </metadata>
  <trk>
    <name><![CDATA[Barrage Belbezet - Roc de la Vigne_1]]></name>
    <trkseg>
      <trkpt lat="43.74593" lon="3.56847">
        <ele>97.5</ele>
        <time>2015-11-28T10:03:21Z</time>
      </trkpt>
      <trkpt lat="43.74599" lon="3.56851">
        <ele>97.5</ele>
        <time>2015-11-28T10:03:26Z</time>
      </trkpt>
      <trkpt lat="43.74606" lon="3.56855">
        <ele>97.325960480542</ele>
        <time>2015-11-28T10:03:41Z</time>
      </trkpt>
      <trkpt lat="43.74612" lon="3.56862">
        <ele>97.325960480542</ele>
        <time>2015-11-28T10:03:41Z</time>
      </trkpt>
      <trkpt lat="43.74624" lon="3.56903">
        <ele>100.33985133585</ele>
        <time>2015-11-28T10:05:11Z</time>
      </trkpt>
      <trkpt lat="43.74644" lon="3.56924">
        <ele>102.97563203623</ele>
        <time>2015-11-28T10:05:41Z</time>
      </trkpt>
      <trkpt lat="43.74648" lon="3.56926">
        <ele>102.97563203623</ele>
        <time>2015-11-28T10:05:46Z</time>
      </trkpt>
      <trkpt lat="43.74655" lon="3.56929">
        <ele>104.83909382768</ele>
        <time>2015-11-28T10:05:51Z</time>
      </trkpt>
      <trkpt lat="43.7466" lon="3.56931">
        <ele>104.83909382768</ele>
        <time>2015-11-28T10:05:56Z</time>
      </trkpt>
      <trkpt lat="43.74666" lon="3.56932">
        <ele>106.23235535281</ele>
        <time>2015-11-28T10:06:01Z</time>
      </trkpt>
      <trkpt lat="43.7469" lon="3.56947">
        <ele>107.41689675772</ele>
        <time>2015-11-28T10:06:26Z</time>
      </trkpt>
      <trkpt lat="43.74695" lon="3.56945">
        <ele>107.41689675772</ele>
        <time>2015-11-28T10:07:09Z</time>
      </trkpt>
      <trkpt lat="43.74689" lon="3.56938">
        <ele>108.53841262996</ele>
        <time>2015-11-28T10:07:09Z</time>
      </trkpt>
      <trkpt lat="43.74668" lon="3.56932">
        <ele>109.47638743426</ele>
        <time>2015-11-28T10:07:26Z</time>
      </trkpt>
      <trkpt lat="43.74639" lon="3.56914">
        <ele>110.05598338636</ele>
        <time>2015-11-28T10:07:51Z</time>
      </trkpt>
      <trkpt lat="43.74633" lon="3.5691">
        <ele>110.05598338636</ele>
        <time>2015-11-28T10:07:56Z</time>
      </trkpt>
      <trkpt lat="43.74621" lon="3.56888">
        <ele>110.39647334517</ele>
        <time>2015-11-28T10:08:21Z</time>
      </trkpt>
      <trkpt lat="43.74601" lon="3.56849">
        <ele>110.38382397066</ele>
        <time>2015-11-28T10:08:49Z</time>
      </trkpt>
      <trkpt lat="43.74594" lon="3.56842">
        <ele>110.38382397066</ele>
        <time>2015-11-28T10:08:49Z</time>
      </trkpt>
      <trkpt lat="43.7455" lon="3.56804">
        <ele>109.41656147065</ele>
        <time>2015-11-28T10:09:41Z</time>
      </trkpt>
      <trkpt lat="43.7447" lon="3.56703">
        <ele>105.26556216076</ele>
        <time>2015-11-28T10:11:09Z</time>
      </trkpt>
      <trkpt lat="43.74467" lon="3.56701">
        <ele>105.26556216076</ele>
        <time>2015-11-28T10:11:11Z</time>
      </trkpt>
      <trkpt lat="43.74452" lon="3.56687">
        <ele>101.01134451191</ele>
        <time>2015-11-28T10:11:33Z</time>
      </trkpt>
      <trkpt lat="43.74444" lon="3.56678">
        <ele>96.878689885954</ele>
        <time>2015-11-28T10:11:33Z</time>
      </trkpt>
      <trkpt lat="43.74413" lon="3.56637">
        <ele>92.008071778059</ele>
        <time>2015-11-28T10:12:20Z</time>
      </trkpt>
      <trkpt lat="43.74406" lon="3.56628">
        <ele>87.4309384321</ele>
        <time>2015-11-28T10:12:24Z</time>
      </trkpt>
      <trkpt lat="43.74422" lon="3.56628">
        <ele>82.857102878258</ele>
        <time>2015-11-28T10:13:03Z</time>
      </trkpt>
      <trkpt lat="43.74483" lon="3.56658">
        <ele>79.266114073675</ele>
        <time>2015-11-28T10:15:08Z</time>
      </trkpt>
      <trkpt lat="43.74497" lon="3.56661">
        <ele>76.559858925954</ele>
        <time>2015-11-28T10:15:23Z</time>
      </trkpt>
      <trkpt lat="43.74527" lon="3.56687">
        <ele>75.214344009796</ele>
        <time>2015-11-28T10:16:08Z</time>
      </trkpt>
      <trkpt lat="43.7453" lon="3.56693">
        <ele>75.214344009796</ele>
        <time>2015-11-28T10:16:08Z</time>
      </trkpt>
      <trkpt lat="43.74554" lon="3.56717">
        <ele>75.376962891748</ele>
        <time>2015-11-28T10:16:46Z</time>
      </trkpt>
      <trkpt lat="43.7456" lon="3.56719">
        <ele>75.376962891748</ele>
        <time>2015-11-28T10:16:46Z</time>
      </trkpt>
      <trkpt lat="43.74566" lon="3.56743">
        <ele>76.481854995615</ele>
        <time>2015-11-28T10:17:15Z</time>
      </trkpt>
      <trkpt lat="43.74569" lon="3.56748">
        <ele>76.481854995615</ele>
        <time>2015-11-28T10:17:18Z</time>
      </trkpt>
      <trkpt lat="43.74596" lon="3.56766">
        <ele>79.112661458074</ele>
        <time>2015-11-28T10:18:28Z</time>
      </trkpt>
      <trkpt lat="43.74603" lon="3.56765">
        <ele>79.112661458074</ele>
        <time>2015-11-28T10:18:28Z</time>
      </trkpt>
      <trkpt lat="43.74641" lon="3.56782">
        <ele>82.660623303078</ele>
        <time>2015-11-28T10:19:18Z</time>
      </trkpt>
      <trkpt lat="43.74644" lon="3.56784">
        <ele>82.660623303078</ele>
        <time>2015-11-28T10:19:21Z</time>
      </trkpt>
      <trkpt lat="43.74648" lon="3.56786">
        <ele>82.660623303078</ele>
        <time>2015-11-28T10:19:28Z</time>
      </trkpt>
      <trkpt lat="43.74653" lon="3.56786">
        <ele>86.27641335066</ele>
        <time>2015-11-28T10:19:39Z</time>
      </trkpt>
      <trkpt lat="43.74657" lon="3.56785">
        <ele>86.27641335066</ele>
        <time>2015-11-28T10:19:41Z</time>
      </trkpt>
      <trkpt lat="43.7474" lon="3.56825">
        <ele>93.013153118724</ele>
        <time>2015-11-28T10:22:12Z</time>
      </trkpt>
      <trkpt lat="43.74747" lon="3.56818">
        <ele>99.998287896214</ele>
        <time>2015-11-28T10:23:41Z</time>
      </trkpt>
      <trkpt lat="43.7475" lon="3.56826">
        <ele>99.998287896214</ele>
        <time>2015-11-28T10:24:00Z</time>
      </trkpt>
      <trkpt lat="43.74787" lon="3.56848">
        <ele>108.18951803463</ele>
        <time>2015-11-28T10:25:23Z</time>
      </trkpt>
      <trkpt lat="43.748" lon="3.56856">
        <ele>116.03111531687</ele>
        <time>2015-11-28T10:25:23Z</time>
      </trkpt>
      <trkpt lat="43.74825" lon="3.56923">
        <ele>124.67552538534</ele>
        <time>2015-11-28T10:26:44Z</time>
      </trkpt>
      <trkpt lat="43.74829" lon="3.56932">
        <ele>124.67552538534</ele>
        <time>2015-11-28T10:26:44Z</time>
      </trkpt>
      <trkpt lat="43.74843" lon="3.56974">
        <ele>133.21010129018</ele>
        <time>2015-11-28T10:27:20Z</time>
      </trkpt>
      <trkpt lat="43.74847" lon="3.56981">
        <ele>133.21010129018</ele>
        <time>2015-11-28T10:27:23Z</time>
      </trkpt>
      <trkpt lat="43.74858" lon="3.56993">
        <ele>141.663692844</ele>
        <time>2015-11-28T10:27:41Z</time>
      </trkpt>
      <trkpt lat="43.75031" lon="3.57016">
        <ele>154.02282569263</ele>
        <time>2015-11-28T10:31:26Z</time>
      </trkpt>
      <trkpt lat="43.75051" lon="3.57025">
        <ele>166.09527226443</ele>
        <time>2015-11-28T10:32:08Z</time>
      </trkpt>
      <trkpt lat="43.75056" lon="3.57032">
        <ele>166.09527226443</ele>
        <time>2015-11-28T10:32:08Z</time>
      </trkpt>
      <trkpt lat="43.75066" lon="3.57042">
        <ele>177.63855831377</ele>
        <time>2015-11-28T10:32:25Z</time>
      </trkpt>
      <trkpt lat="43.75126" lon="3.57129">
        <ele>189.70128671096</ele>
        <time>2015-11-28T10:34:08Z</time>
      </trkpt>
      <trkpt lat="43.75129" lon="3.57133">
        <ele>189.70128671096</ele>
        <time>2015-11-28T10:34:09Z</time>
      </trkpt>
      <trkpt lat="43.75132" lon="3.57147">
        <ele>201.07414234146</ele>
        <time>2015-11-28T10:34:35Z</time>
      </trkpt>
      <trkpt lat="43.75172" lon="3.57185">
        <ele>212.50657850092</ele>
        <time>2015-11-28T10:35:35Z</time>
      </trkpt>
      <trkpt lat="43.75173" lon="3.57185">
        <ele>212.50657850092</ele>
        <time>2015-11-28T10:35:36Z</time>
      </trkpt>
      <trkpt lat="43.75211" lon="3.57219">
        <ele>223.77441299663</ele>
        <time>2015-11-28T10:36:56Z</time>
      </trkpt>
      <trkpt lat="43.75231" lon="3.57245">
        <ele>234.47619914981</ele>
        <time>2015-11-28T10:37:48Z</time>
      </trkpt>
      <trkpt lat="43.75242" lon="3.57257">
        <ele>244.05812827986</ele>
        <time>2015-11-28T10:37:48Z</time>
      </trkpt>
      <trkpt lat="43.75304" lon="3.57306">
        <ele>254.12715770521</ele>
        <time>2015-11-28T10:39:33Z</time>
      </trkpt>
      <trkpt lat="43.75306" lon="3.57306">
        <ele>254.12715770521</ele>
        <time>2015-11-28T10:39:36Z</time>
      </trkpt>
      <trkpt lat="43.75428" lon="3.57331">
        <ele>265.74751273964</ele>
        <time>2015-11-28T10:41:49Z</time>
      </trkpt>
      <trkpt lat="43.75442" lon="3.57322">
        <ele>276.4181681399</ele>
        <time>2015-11-28T10:41:57Z</time>
      </trkpt>
      <trkpt lat="43.75502" lon="3.57319">
        <ele>286.58848116954</ele>
        <time>2015-11-28T10:42:56Z</time>
      </trkpt>
      <trkpt lat="43.75547" lon="3.57301">
        <ele>295.45979391158</ele>
        <time>2015-11-28T10:43:34Z</time>
      </trkpt>
      <trkpt lat="43.75548" lon="3.57301">
        <ele>295.45979391158</ele>
        <time>2015-11-28T10:43:36Z</time>
      </trkpt>
      <trkpt lat="43.75567" lon="3.57292">
        <ele>303.26855164825</ele>
        <time>2015-11-28T10:44:00Z</time>
      </trkpt>
      <trkpt lat="43.75574" lon="3.57292">
        <ele>303.26855164825</ele>
        <time>2015-11-28T10:44:00Z</time>
      </trkpt>
      <trkpt lat="43.75588" lon="3.57291">
        <ele>310.01859307385</ele>
        <time>2015-11-28T10:44:15Z</time>
      </trkpt>
      <trkpt lat="43.75616" lon="3.5729">
        <ele>315.02800019279</ele>
        <time>2015-11-28T10:44:41Z</time>
      </trkpt>
      <trkpt lat="43.75687" lon="3.57231">
        <ele>318.94132219273</ele>
        <time>2015-11-28T10:46:10Z</time>
      </trkpt>
      <trkpt lat="43.75746" lon="3.57224">
        <ele>321.86484529733</ele>
        <time>2015-11-28T10:47:00Z</time>
      </trkpt>
      <trkpt lat="43.75747" lon="3.57224">
        <ele>321.86484529733</ele>
        <time>2015-11-28T10:47:01Z</time>
      </trkpt>
      <trkpt lat="43.75768" lon="3.57228">
        <ele>323.97766701635</ele>
        <time>2015-11-28T10:47:31Z</time>
      </trkpt>
      <trkpt lat="43.75772" lon="3.57227">
        <ele>323.97766701635</ele>
        <time>2015-11-28T10:47:39Z</time>
      </trkpt>
      <trkpt lat="43.75783" lon="3.57223">
        <ele>325.38851923748</ele>
        <time>2015-11-28T10:47:47Z</time>
      </trkpt>
      <trkpt lat="43.75784" lon="3.57221">
        <ele>325.38851923748</ele>
        <time>2015-11-28T10:47:52Z</time>
      </trkpt>
      <trkpt lat="43.75798" lon="3.57226">
        <ele>326.51685041362</ele>
        <time>2015-11-28T10:48:12Z</time>
      </trkpt>
      <trkpt lat="43.75805" lon="3.57226">
        <ele>326.51685041362</ele>
        <time>2015-11-28T10:48:12Z</time>
      </trkpt>
      <trkpt lat="43.75824" lon="3.57206">
        <ele>327.49310725211</ele>
        <time>2015-11-28T10:48:41Z</time>
      </trkpt>
      <trkpt lat="43.75844" lon="3.5719">
        <ele>328.04616411046</ele>
        <time>2015-11-28T10:49:02Z</time>
      </trkpt>
      <trkpt lat="43.75845" lon="3.57189">
        <ele>328.04616411046</ele>
        <time>2015-11-28T10:49:02Z</time>
      </trkpt>
      <trkpt lat="43.7585" lon="3.57174">
        <ele>328.21293945097</ele>
        <time>2015-11-28T10:49:21Z</time>
      </trkpt>
      <trkpt lat="43.75878" lon="3.57116">
        <ele>328.83598355183</ele>
        <time>2015-11-28T10:51:01Z</time>
      </trkpt>
      <trkpt lat="43.759" lon="3.57113">
        <ele>329.29649424775</ele>
        <time>2015-11-28T10:51:31Z</time>
      </trkpt>
      <trkpt lat="43.75944" lon="3.57111">
        <ele>330.09981452335</ele>
        <time>2015-11-28T10:52:33Z</time>
      </trkpt>
      <trkpt lat="43.75992" lon="3.57121">
        <ele>331.45452697722</ele>
        <time>2015-11-28T10:53:11Z</time>
      </trkpt>
      <trkpt lat="43.76009" lon="3.57125">
        <ele>332.8085798516</ele>
        <time>2015-11-28T10:53:32Z</time>
      </trkpt>
      <trkpt lat="43.76021" lon="3.57134">
        <ele>334.05511717097</ele>
        <time>2015-11-28T10:53:59Z</time>
      </trkpt>
      <trkpt lat="43.7606" lon="3.57164">
        <ele>335.56810676994</ele>
        <time>2015-11-28T10:54:28Z</time>
      </trkpt>
      <trkpt lat="43.76078" lon="3.57171">
        <ele>336.95374855084</ele>
        <time>2015-11-28T10:54:51Z</time>
      </trkpt>
      <trkpt lat="43.7609" lon="3.57175">
        <ele>338.14463669753</ele>
        <time>2015-11-28T10:55:17Z</time>
      </trkpt>
      <trkpt lat="43.76105" lon="3.57176">
        <ele>339.1231235663</ele>
        <time>2015-11-28T10:55:28Z</time>
      </trkpt>
      <trkpt lat="43.76111" lon="3.57176">
        <ele>339.1231235663</ele>
        <time>2015-11-28T10:55:31Z</time>
      </trkpt>
      <trkpt lat="43.76169" lon="3.57163">
        <ele>340.56032797358</ele>
        <time>2015-11-28T10:56:33Z</time>
      </trkpt>
      <trkpt lat="43.76174" lon="3.57161">
        <ele>340.56032797358</ele>
        <time>2015-11-28T10:56:33Z</time>
      </trkpt>
      <trkpt lat="43.76285" lon="3.57143">
        <ele>343.43626073158</ele>
        <time>2015-11-28T10:59:04Z</time>
      </trkpt>
      <trkpt lat="43.76291" lon="3.57142">
        <ele>343.43626073158</ele>
        <time>2015-11-28T10:59:08Z</time>
      </trkpt>
      <trkpt lat="43.76294" lon="3.57133">
        <ele>346.11408588802</ele>
        <time>2015-11-28T10:59:26Z</time>
      </trkpt>
      <trkpt lat="43.76292" lon="3.57094">
        <ele>348.52832980152</ele>
        <time>2015-11-28T11:00:06Z</time>
      </trkpt>
      <trkpt lat="43.76294" lon="3.57086">
        <ele>348.52832980152</ele>
        <time>2015-11-28T11:00:25Z</time>
      </trkpt>
      <trkpt lat="43.76297" lon="3.57075">
        <ele>350.74981841921</ele>
        <time>2015-11-28T11:00:25Z</time>
      </trkpt>
      <trkpt lat="43.76318" lon="3.57022">
        <ele>353.51119138725</ele>
        <time>2015-11-28T11:02:00Z</time>
      </trkpt>
      <trkpt lat="43.76355" lon="3.57053">
        <ele>356.80543424222</ele>
        <time>2015-11-28T11:03:26Z</time>
      </trkpt>
      <trkpt lat="43.76361" lon="3.57055">
        <ele>356.80543424222</ele>
        <time>2015-11-28T11:03:26Z</time>
      </trkpt>
      <trkpt lat="43.76381" lon="3.5706">
        <ele>360.81291236566</ele>
        <time>2015-11-28T11:04:08Z</time>
      </trkpt>
      <trkpt lat="43.76401" lon="3.5706">
        <ele>365.39461922283</ele>
        <time>2015-11-28T11:04:43Z</time>
      </trkpt>
      <trkpt lat="43.76476" lon="3.57064">
        <ele>372.15486543353</ele>
        <time>2015-11-28T11:05:59Z</time>
      </trkpt>
      <trkpt lat="43.76477" lon="3.57063">
        <ele>372.15486543353</ele>
        <time>2015-11-28T11:06:01Z</time>
      </trkpt>
      <trkpt lat="43.76481" lon="3.57063">
        <ele>372.15486543353</ele>
        <time>2015-11-28T11:06:11Z</time>
      </trkpt>
      <trkpt lat="43.76482" lon="3.57061">
        <ele>372.15486543353</ele>
        <time>2015-11-28T11:06:16Z</time>
      </trkpt>
      <trkpt lat="43.76488" lon="3.57058">
        <ele>378.48325858878</ele>
        <time>2015-11-28T11:06:26Z</time>
      </trkpt>
      <trkpt lat="43.76492" lon="3.57056">
        <ele>378.48325858878</ele>
        <time>2015-11-28T11:06:31Z</time>
      </trkpt>
      <trkpt lat="43.76499" lon="3.57048">
        <ele>384.43639775482</ele>
        <time>2015-11-28T11:06:46Z</time>
      </trkpt>
      <trkpt lat="43.76502" lon="3.57043">
        <ele>384.43639775482</ele>
        <time>2015-11-28T11:06:51Z</time>
      </trkpt>
      <trkpt lat="43.76507" lon="3.57041">
        <ele>389.86524363169</ele>
        <time>2015-11-28T11:07:00Z</time>
      </trkpt>
      <trkpt lat="43.76507" lon="3.57041">
        <ele>389.86524363169</ele>
        <time>2015-11-28T11:07:01Z</time>
      </trkpt>
      <trkpt lat="43.76525" lon="3.57039">
        <ele>394.99364491367</ele>
        <time>2015-11-28T11:07:26Z</time>
      </trkpt>
      <trkpt lat="43.76535" lon="3.57042">
        <ele>399.76971769931</ele>
        <time>2015-11-28T11:07:48Z</time>
      </trkpt>
      <trkpt lat="43.76536" lon="3.57038">
        <ele>399.76971769931</ele>
        <time>2015-11-28T11:07:48Z</time>
      </trkpt>
      <trkpt lat="43.76554" lon="3.57028">
        <ele>404.59322268481</ele>
        <time>2015-11-28T11:09:04Z</time>
      </trkpt>
      <trkpt lat="43.76554" lon="3.57027">
        <ele>404.59322268481</ele>
        <time>2015-11-28T11:09:04Z</time>
      </trkpt>
      <trkpt lat="43.76649" lon="3.57007">
        <ele>411.56432043015</ele>
        <time>2015-11-28T11:12:58Z</time>
      </trkpt>
      <trkpt lat="43.7665" lon="3.56999">
        <ele>411.56432043015</ele>
        <time>2015-11-28T11:12:58Z</time>
      </trkpt>
      <trkpt lat="43.76649" lon="3.56993">
        <ele>417.93646361415</ele>
        <time>2015-11-28T11:13:15Z</time>
      </trkpt>
      <trkpt lat="43.76663" lon="3.56977">
        <ele>425.10312688292</ele>
        <time>2015-11-28T11:14:28Z</time>
      </trkpt>
      <trkpt lat="43.76683" lon="3.57001">
        <ele>432.88242842629</ele>
        <time>2015-11-28T11:15:26Z</time>
      </trkpt>
      <trkpt lat="43.76695" lon="3.57041">
        <ele>440.32558623155</ele>
        <time>2015-11-28T11:16:08Z</time>
      </trkpt>
      <trkpt lat="43.76716" lon="3.57059">
        <ele>447.47718902165</ele>
        <time>2015-11-28T11:16:41Z</time>
      </trkpt>
      <trkpt lat="43.76722" lon="3.57059">
        <ele>447.47718902165</ele>
        <time>2015-11-28T11:16:41Z</time>
      </trkpt>
      <trkpt lat="43.76732" lon="3.57059">
        <ele>454.46590712678</ele>
        <time>2015-11-28T11:17:00Z</time>
      </trkpt>
      <trkpt lat="43.76727" lon="3.5704">
        <ele>461.07982536594</ele>
        <time>2015-11-28T11:17:24Z</time>
      </trkpt>
      <trkpt lat="43.76723" lon="3.57024">
        <ele>467.26791359781</ele>
        <time>2015-11-28T11:17:49Z</time>
      </trkpt>
      <trkpt lat="43.7672" lon="3.57021">
        <ele>467.26791359781</ele>
        <time>2015-11-28T11:17:49Z</time>
      </trkpt>
      <trkpt lat="43.76718" lon="3.57002">
        <ele>473.25820418183</ele>
        <time>2015-11-28T11:18:18Z</time>
      </trkpt>
      <trkpt lat="43.76727" lon="3.56972">
        <ele>479.1617284921</ele>
        <time>2015-11-28T11:19:04Z</time>
      </trkpt>
      <trkpt lat="43.76731" lon="3.56969">
        <ele>479.1617284921</ele>
        <time>2015-11-28T11:19:08Z</time>
      </trkpt>
      <trkpt lat="43.76735" lon="3.56978">
        <ele>484.54808555229</ele>
        <time>2015-11-28T11:19:29Z</time>
      </trkpt>
      <trkpt lat="43.76803" lon="3.57037">
        <ele>490.27491584339</ele>
        <time>2015-11-28T11:20:59Z</time>
      </trkpt>
      <trkpt lat="43.76804" lon="3.57037">
        <ele>490.27491584339</ele>
        <time>2015-11-28T11:21:03Z</time>
      </trkpt>
      <trkpt lat="43.76844" lon="3.57053">
        <ele>495.56384151626</ele>
        <time>2015-11-28T11:21:59Z</time>
      </trkpt>
      <trkpt lat="43.76849" lon="3.57055">
        <ele>495.56384151626</ele>
        <time>2015-11-28T11:22:00Z</time>
      </trkpt>
      <trkpt lat="43.76855" lon="3.5706">
        <ele>500.1854428609</ele>
        <time>2015-11-28T11:22:06Z</time>
      </trkpt>
      <trkpt lat="43.76885" lon="3.57096">
        <ele>504.31863605437</ele>
        <time>2015-11-28T11:22:49Z</time>
      </trkpt>
      <trkpt lat="43.769" lon="3.57113">
        <ele>507.95759579661</ele>
        <time>2015-11-28T11:23:11Z</time>
      </trkpt>
      <trkpt lat="43.76931" lon="3.57156">
        <ele>511.28594044914</ele>
        <time>2015-11-28T11:23:56Z</time>
      </trkpt>
      <trkpt lat="43.76989" lon="3.57206">
        <ele>514.35934968408</ele>
        <time>2015-11-28T11:25:00Z</time>
      </trkpt>
      <trkpt lat="43.77054" lon="3.5722">
        <ele>517.01383487014</ele>
        <time>2015-11-28T11:26:46Z</time>
      </trkpt>
      <trkpt lat="43.77084" lon="3.57213">
        <ele>519.40158493207</ele>
        <time>2015-11-28T11:27:21Z</time>
      </trkpt>
      <trkpt lat="43.77138" lon="3.57208">
        <ele>521.64992995485</ele>
        <time>2015-11-28T11:28:27Z</time>
      </trkpt>
      <trkpt lat="43.77144" lon="3.57207">
        <ele>521.64992995485</ele>
        <time>2015-11-28T11:28:27Z</time>
      </trkpt>
      <trkpt lat="43.77169" lon="3.57204">
        <ele>523.73299223233</ele>
        <time>2015-11-28T11:29:00Z</time>
      </trkpt>
      <trkpt lat="43.77264" lon="3.57213">
        <ele>526.04544886297</ele>
        <time>2015-11-28T11:31:09Z</time>
      </trkpt>
      <trkpt lat="43.77274" lon="3.5723">
        <ele>528.08699035046</ele>
        <time>2015-11-28T11:31:17Z</time>
      </trkpt>
      <trkpt lat="43.77277" lon="3.57233">
        <ele>528.08699035046</ele>
        <time>2015-11-28T11:31:21Z</time>
      </trkpt>
      <trkpt lat="43.77277" lon="3.57239">
        <ele>528.08699035046</ele>
        <time>2015-11-28T11:31:44Z</time>
      </trkpt>
      <trkpt lat="43.77322" lon="3.57279">
        <ele>530.76472419115</ele>
        <time>2015-11-28T11:33:10Z</time>
      </trkpt>
      <trkpt lat="43.7738" lon="3.57281">
        <ele>534.31147196623</ele>
        <time>2015-11-28T11:34:04Z</time>
      </trkpt>
      <trkpt lat="43.77445" lon="3.57286">
        <ele>538.43574885324</ele>
        <time>2015-11-28T11:35:05Z</time>
      </trkpt>
      <trkpt lat="43.77459" lon="3.57283">
        <ele>542.01521456848</ele>
        <time>2015-11-28T11:35:17Z</time>
      </trkpt>
      <trkpt lat="43.77465" lon="3.57281">
        <ele>542.01521456848</ele>
        <time>2015-11-28T11:35:21Z</time>
      </trkpt>
      <trkpt lat="43.7748" lon="3.57263">
        <ele>545.29471995925</ele>
        <time>2015-11-28T11:35:42Z</time>
      </trkpt>
      <trkpt lat="43.7748" lon="3.57254">
        <ele>545.29471995925</ele>
        <time>2015-11-28T11:35:42Z</time>
      </trkpt>
      <trkpt lat="43.77484" lon="3.57222">
        <ele>548.15584227919</ele>
        <time>2015-11-28T11:36:04Z</time>
      </trkpt>
      <trkpt lat="43.77473" lon="3.57138">
        <ele>550.80708887151</ele>
        <time>2015-11-28T11:37:06Z</time>
      </trkpt>
      <trkpt lat="43.77464" lon="3.57126">
        <ele>552.64928246351</ele>
        <time>2015-11-28T11:37:16Z</time>
      </trkpt>
      <trkpt lat="43.77454" lon="3.57126">
        <ele>553.44661267935</ele>
        <time>2015-11-28T11:37:36Z</time>
      </trkpt>
      <trkpt lat="43.77451" lon="3.57118">
        <ele>553.44661267935</ele>
        <time>2015-11-28T11:37:51Z</time>
      </trkpt>
      <trkpt lat="43.7745" lon="3.57116">
        <ele>553.44661267935</ele>
        <time>2015-11-28T11:37:56Z</time>
      </trkpt>
      <trkpt lat="43.77447" lon="3.57107">
        <ele>553.51672050482</ele>
        <time>2015-11-28T11:38:11Z</time>
      </trkpt>
      <trkpt lat="43.77441" lon="3.57098">
        <ele>553.51672050482</ele>
        <time>2015-11-28T11:38:23Z</time>
      </trkpt>
      <trkpt lat="43.77396" lon="3.57073">
        <ele>553.48725849967</ele>
        <time>2015-11-28T11:39:16Z</time>
      </trkpt>
      <trkpt lat="43.77393" lon="3.5707">
        <ele>553.48725849967</ele>
        <time>2015-11-28T11:39:23Z</time>
      </trkpt>
      <trkpt lat="43.7739" lon="3.57067">
        <ele>553.48725849967</ele>
        <time>2015-11-28T11:39:26Z</time>
      </trkpt>
      <trkpt lat="43.77388" lon="3.57058">
        <ele>553.43535421807</ele>
        <time>2015-11-28T11:39:31Z</time>
      </trkpt>
      <trkpt lat="43.77371" lon="3.57043">
        <ele>553.27379448147</ele>
        <time>2015-11-28T11:41:13Z</time>
      </trkpt>
      <trkpt lat="43.7734" lon="3.56967">
        <ele>552.90746146165</ele>
        <time>2015-11-28T11:41:16Z</time>
      </trkpt>
      <trkpt lat="43.77324" lon="3.56912">
        <ele>553.50242074078</ele>
        <time>2015-11-28T11:41:54Z</time>
      </trkpt>
      <trkpt lat="43.77308" lon="3.56901">
        <ele>553.85899713425</ele>
        <time>2015-11-28T11:42:43Z</time>
      </trkpt>
      <trkpt lat="43.77302" lon="3.56864">
        <ele>554.00463565773</ele>
        <time>2015-11-28T11:42:52Z</time>
      </trkpt>
      <trkpt lat="43.773" lon="3.5685">
        <ele>555.1468275315</ele>
        <time>2015-11-28T11:42:56Z</time>
      </trkpt>
      <trkpt lat="43.77271" lon="3.56821">
        <ele>556.52776746847</ele>
        <time>2015-11-28T11:43:31Z</time>
      </trkpt>
      <trkpt lat="43.77272" lon="3.56818">
        <ele>556.52776746847</ele>
        <time>2015-11-28T11:43:42Z</time>
      </trkpt>
      <trkpt lat="43.77183" lon="3.56761">
        <ele>557.94878822685</ele>
        <time>2015-11-28T11:45:41Z</time>
      </trkpt>
      <trkpt lat="43.77167" lon="3.56773">
        <ele>561.79064391176</ele>
        <time>2015-11-28T11:46:28Z</time>
      </trkpt>
      <trkpt lat="43.77154" lon="3.5678">
        <ele>565.19376352976</ele>
        <time>2015-11-28T11:47:01Z</time>
      </trkpt>
      <trkpt lat="43.77116" lon="3.56717">
        <ele>570.26535868254</ele>
        <time>2015-11-28T11:47:31Z</time>
      </trkpt>
      <trkpt lat="43.7711" lon="3.5671">
        <ele>570.26535868254</ele>
        <time>2015-11-28T11:47:38Z</time>
      </trkpt>
      <trkpt lat="43.77107" lon="3.56708">
        <ele>575.14836166635</ele>
        <time>2015-11-28T11:47:41Z</time>
      </trkpt>
      <trkpt lat="43.77104" lon="3.56705">
        <ele>575.14836166635</ele>
        <time>2015-11-28T11:47:46Z</time>
      </trkpt>
      <trkpt lat="43.77084" lon="3.56645">
        <ele>581.3073455434</ele>
        <time>2015-11-28T11:48:41Z</time>
      </trkpt>
      <trkpt lat="43.77009" lon="3.56437">
        <ele>589.18764611266</ele>
        <time>2015-11-28T11:51:46Z</time>
      </trkpt>
      <trkpt lat="43.76995" lon="3.56407">
        <ele>596.7470145106</ele>
        <time>2015-11-28T11:52:11Z</time>
      </trkpt>
      <trkpt lat="43.76995" lon="3.56363">
        <ele>603.80897932821</ele>
        <time>2015-11-28T11:52:49Z</time>
      </trkpt>
      <trkpt lat="43.76993" lon="3.5636">
        <ele>603.80897932821</ele>
        <time>2015-11-28T11:53:00Z</time>
      </trkpt>
      <trkpt lat="43.76978" lon="3.56351">
        <ele>610.44196570298</ele>
        <time>2015-11-28T11:53:11Z</time>
      </trkpt>
      <trkpt lat="43.76971" lon="3.56344">
        <ele>616.58086875849</ele>
        <time>2015-11-28T11:53:21Z</time>
      </trkpt>
      <trkpt lat="43.76969" lon="3.56338">
        <ele>616.58086875849</ele>
        <time>2015-11-28T11:53:28Z</time>
      </trkpt>
      <trkpt lat="43.76963" lon="3.56325">
        <ele>622.08030962689</ele>
        <time>2015-11-28T11:54:26Z</time>
      </trkpt>
      <trkpt lat="43.76935" lon="3.56265">
        <ele>627.21095254649</ele>
        <time>2015-11-28T11:54:33Z</time>
      </trkpt>
      <trkpt lat="43.76938" lon="3.56156">
        <ele>631.80675126931</ele>
        <time>2015-11-28T11:55:43Z</time>
      </trkpt>
      <trkpt lat="43.76938" lon="3.56152">
        <ele>631.80675126931</ele>
        <time>2015-11-28T11:55:46Z</time>
      </trkpt>
      <trkpt lat="43.76933" lon="3.56134">
        <ele>635.87396375006</ele>
        <time>2015-11-28T11:56:21Z</time>
      </trkpt>
      <trkpt lat="43.76884" lon="3.56059">
        <ele>639.66495364539</ele>
        <time>2015-11-28T11:57:21Z</time>
      </trkpt>
      <trkpt lat="43.76841" lon="3.56014">
        <ele>643.05412395128</ele>
        <time>2015-11-28T11:58:38Z</time>
      </trkpt>
      <trkpt lat="43.76835" lon="3.56001">
        <ele>645.91190737703</ele>
        <time>2015-11-28T11:59:41Z</time>
      </trkpt>
      <trkpt lat="43.76834" lon="3.55999">
        <ele>645.91190737703</ele>
        <time>2015-11-28T11:59:52Z</time>
      </trkpt>
      <trkpt lat="43.76835" lon="3.55985">
        <ele>648.30717682216</ele>
        <time>2015-11-28T12:00:01Z</time>
      </trkpt>
      <trkpt lat="43.76835" lon="3.55963">
        <ele>650.29070464837</ele>
        <time>2015-11-28T12:00:11Z</time>
      </trkpt>
      <trkpt lat="43.76839" lon="3.55953">
        <ele>650.29070464837</ele>
        <time>2015-11-28T12:00:16Z</time>
      </trkpt>
      <trkpt lat="43.76864" lon="3.55877">
        <ele>651.49281537112</ele>
        <time>2015-11-28T12:01:27Z</time>
      </trkpt>
      <trkpt lat="43.76901" lon="3.55779">
        <ele>652.42350301428</ele>
        <time>2015-11-28T12:03:22Z</time>
      </trkpt>
      <trkpt lat="43.7692" lon="3.55779">
        <ele>653.39755572629</ele>
        <time>2015-11-28T12:03:43Z</time>
      </trkpt>
      <trkpt lat="43.76926" lon="3.55767">
        <ele>653.84183174001</ele>
        <time>2015-11-28T12:05:22Z</time>
      </trkpt>
      <trkpt lat="43.76971" lon="3.55744">
        <ele>653.96174540265</ele>
        <time>2015-11-28T12:11:06Z</time>
      </trkpt>
      <trkpt lat="43.76974" lon="3.55736">
        <ele>653.96174540265</ele>
        <time>2015-11-28T12:11:16Z</time>
      </trkpt>
      <trkpt lat="43.76975" lon="3.55734">
        <ele>653.96174540265</ele>
        <time>2015-11-28T12:11:22Z</time>
      </trkpt>
      <trkpt lat="43.7697" lon="3.55744">
        <ele>653.68908412569</ele>
        <time>2015-11-28T12:15:08Z</time>
      </trkpt>
      <trkpt lat="43.76946" lon="3.55779">
        <ele>653.36520250366</ele>
        <time>2015-11-28T12:15:58Z</time>
      </trkpt>
      <trkpt lat="43.76932" lon="3.5579">
        <ele>652.90291515474</ele>
        <time>2015-11-28T12:16:16Z</time>
      </trkpt>
      <trkpt lat="43.76929" lon="3.55791">
        <ele>652.90291515474</ele>
        <time>2015-11-28T12:16:21Z</time>
      </trkpt>
      <trkpt lat="43.7693" lon="3.55792">
        <ele>652.90291515474</ele>
        <time>2015-11-28T12:16:26Z</time>
      </trkpt>
      <trkpt lat="43.76928" lon="3.55798">
        <ele>652.90291515474</ele>
        <time>2015-11-28T12:16:36Z</time>
      </trkpt>
      <trkpt lat="43.76919" lon="3.55816">
        <ele>652.1784847367</ele>
        <time>2015-11-28T12:16:56Z</time>
      </trkpt>
      <trkpt lat="43.76904" lon="3.55844">
        <ele>651.32285794655</ele>
        <time>2015-11-28T12:17:56Z</time>
      </trkpt>
      <trkpt lat="43.76871" lon="3.55814">
        <ele>650.76021127626</ele>
        <time>2015-11-28T12:19:01Z</time>
      </trkpt>
      <trkpt lat="43.7682" lon="3.55821">
        <ele>650.20523171707</ele>
        <time>2015-11-28T12:19:43Z</time>
      </trkpt>
      <trkpt lat="43.76802" lon="3.55848">
        <ele>649.6959888614</ele>
        <time>2015-11-28T12:20:01Z</time>
      </trkpt>
      <trkpt lat="43.76793" lon="3.55861">
        <ele>649.19536289535</ele>
        <time>2015-11-28T12:20:18Z</time>
      </trkpt>
      <trkpt lat="43.76792" lon="3.55861">
        <ele>649.19536289535</ele>
        <time>2015-11-28T12:20:18Z</time>
      </trkpt>
      <trkpt lat="43.7677" lon="3.55877">
        <ele>648.43813569152</ele>
        <time>2015-11-28T12:20:36Z</time>
      </trkpt>
      <trkpt lat="43.76714" lon="3.55922">
        <ele>647.32317096103</ele>
        <time>2015-11-28T12:21:37Z</time>
      </trkpt>
      <trkpt lat="43.76713" lon="3.55925">
        <ele>647.32317096103</ele>
        <time>2015-11-28T12:21:41Z</time>
      </trkpt>
      <trkpt lat="43.76701" lon="3.5593">
        <ele>646.03133231086</ele>
        <time>2015-11-28T12:22:02Z</time>
      </trkpt>
      <trkpt lat="43.76646" lon="3.55937">
        <ele>644.19721981252</ele>
        <time>2015-11-28T12:22:54Z</time>
      </trkpt>
      <trkpt lat="43.76622" lon="3.55951">
        <ele>641.65645853151</ele>
        <time>2015-11-28T12:23:11Z</time>
      </trkpt>
      <trkpt lat="43.76584" lon="3.55967">
        <ele>637.82610497564</ele>
        <time>2015-11-28T12:24:36Z</time>
      </trkpt>
      <trkpt lat="43.76579" lon="3.55972">
        <ele>637.82610497564</ele>
        <time>2015-11-28T12:24:43Z</time>
      </trkpt>
      <trkpt lat="43.76578" lon="3.55973">
        <ele>637.82610497564</ele>
        <time>2015-11-28T12:24:46Z</time>
      </trkpt>
      <trkpt lat="43.76577" lon="3.55978">
        <ele>634.11485210089</ele>
        <time>2015-11-28T12:24:51Z</time>
      </trkpt>
      <trkpt lat="43.76571" lon="3.55989">
        <ele>630.63111610296</ele>
        <time>2015-11-28T12:25:32Z</time>
      </trkpt>
      <trkpt lat="43.76565" lon="3.55994">
        <ele>630.63111610296</ele>
        <time>2015-11-28T12:25:36Z</time>
      </trkpt>
      <trkpt lat="43.76563" lon="3.55991">
        <ele>627.27260058249</ele>
        <time>2015-11-28T12:26:01Z</time>
      </trkpt>
      <trkpt lat="43.76565" lon="3.55993">
        <ele>627.27260058249</ele>
        <time>2015-11-28T12:26:06Z</time>
      </trkpt>
      <trkpt lat="43.76566" lon="3.55996">
        <ele>627.27260058249</ele>
        <time>2015-11-28T12:26:11Z</time>
      </trkpt>
      <trkpt lat="43.76584" lon="3.55989">
        <ele>624.30407789174</ele>
        <time>2015-11-28T12:26:41Z</time>
      </trkpt>
      <trkpt lat="43.76581" lon="3.56004">
        <ele>621.50823180123</ele>
        <time>2015-11-28T12:27:26Z</time>
      </trkpt>
      <trkpt lat="43.76585" lon="3.56008">
        <ele>621.50823180123</ele>
        <time>2015-11-28T12:27:48Z</time>
      </trkpt>
      <trkpt lat="43.76581" lon="3.5601">
        <ele>618.94222754862</ele>
        <time>2015-11-28T12:27:57Z</time>
      </trkpt>
      <trkpt lat="43.76585" lon="3.56018">
        <ele>618.94222754862</ele>
        <time>2015-11-28T12:28:51Z</time>
      </trkpt>
      <trkpt lat="43.76583" lon="3.5602">
        <ele>616.614747725</ele>
        <time>2015-11-28T12:28:58Z</time>
      </trkpt>
      <trkpt lat="43.76584" lon="3.56018">
        <ele>616.614747725</ele>
        <time>2015-11-28T12:29:03Z</time>
      </trkpt>
      <trkpt lat="43.76586" lon="3.56019">
        <ele>616.614747725</ele>
        <time>2015-11-28T12:29:06Z</time>
      </trkpt>
      <trkpt lat="43.76584" lon="3.56019">
        <ele>616.614747725</ele>
        <time>2015-11-28T12:29:13Z</time>
      </trkpt>
      <trkpt lat="43.76582" lon="3.56017">
        <ele>616.614747725</ele>
        <time>2015-11-28T12:29:16Z</time>
      </trkpt>
      <trkpt lat="43.76582" lon="3.56029">
        <ele>614.38864864461</ele>
        <time>2015-11-28T12:29:23Z</time>
      </trkpt>
      <trkpt lat="43.76581" lon="3.56033">
        <ele>614.38864864461</ele>
        <time>2015-11-28T12:29:26Z</time>
      </trkpt>
      <trkpt lat="43.76398" lon="3.56131">
        <ele>606.65993269423</ele>
        <time>2015-11-28T12:47:41Z</time>
      </trkpt>
      <trkpt lat="43.76545" lon="3.56041">
        <ele>611.87112384082</ele>
        <time>2015-11-28T12:48:11Z</time>
      </trkpt>
      <trkpt lat="43.76554" lon="3.56036">
        <ele>614.54736879655</ele>
        <time>2015-11-28T12:48:16Z</time>
      </trkpt>
      <trkpt lat="43.76567" lon="3.56028">
        <ele>615.21518809098</ele>
        <time>2015-11-28T12:48:26Z</time>
      </trkpt>
      <trkpt lat="43.76569" lon="3.56027">
        <ele>615.21518809098</ele>
        <time>2015-11-28T12:48:31Z</time>
      </trkpt>
      <trkpt lat="43.76573" lon="3.56025">
        <ele>615.21518809098</ele>
        <time>2015-11-28T12:48:36Z</time>
      </trkpt>
      <trkpt lat="43.76575" lon="3.56026">
        <ele>615.21518809098</ele>
        <time>2015-11-28T12:48:41Z</time>
      </trkpt>
      <trkpt lat="43.76576" lon="3.56028">
        <ele>614.10830746135</ele>
        <time>2015-11-28T12:48:46Z</time>
      </trkpt>
      <trkpt lat="43.76577" lon="3.56029">
        <ele>614.10830746135</ele>
        <time>2015-11-28T12:48:51Z</time>
      </trkpt>
      <trkpt lat="43.7658" lon="3.56028">
        <ele>614.10830746135</ele>
        <time>2015-11-28T12:48:56Z</time>
      </trkpt>
      <trkpt lat="43.76585" lon="3.56022">
        <ele>612.0243864504</ele>
        <time>2015-11-28T12:49:01Z</time>
      </trkpt>
      <trkpt lat="43.76588" lon="3.5602">
        <ele>612.0243864504</ele>
        <time>2015-11-28T12:49:06Z</time>
      </trkpt>
      <trkpt lat="43.76591" lon="3.56015">
        <ele>612.0243864504</ele>
        <time>2015-11-28T12:49:11Z</time>
      </trkpt>
      <trkpt lat="43.76593" lon="3.56011">
        <ele>609.33023637869</ele>
        <time>2015-11-28T12:49:16Z</time>
      </trkpt>
      <trkpt lat="43.76614" lon="3.55998">
        <ele>606.05009104394</ele>
        <time>2015-11-28T12:49:37Z</time>
      </trkpt>
      <trkpt lat="43.76608" lon="3.55999">
        <ele>606.05009104394</ele>
        <time>2015-11-28T12:49:46Z</time>
      </trkpt>
      <trkpt lat="43.76584" lon="3.56012">
        <ele>602.51038154692</ele>
        <time>2015-11-28T12:50:04Z</time>
      </trkpt>
      <trkpt lat="43.76581" lon="3.56011">
        <ele>602.51038154692</ele>
        <time>2015-11-28T12:50:07Z</time>
      </trkpt>
      <trkpt lat="43.76592" lon="3.55979">
        <ele>600.2533425475</ele>
        <time>2015-11-28T12:51:42Z</time>
      </trkpt>
      <trkpt lat="43.76593" lon="3.55964">
        <ele>598.05236870388</ele>
        <time>2015-11-28T12:52:18Z</time>
      </trkpt>
      <trkpt lat="43.7659" lon="3.55962">
        <ele>598.05236870388</ele>
        <time>2015-11-28T12:52:48Z</time>
      </trkpt>
      <trkpt lat="43.76595" lon="3.55956">
        <ele>597.30686101105</ele>
        <time>2015-11-28T12:52:55Z</time>
      </trkpt>
      <trkpt lat="43.76627" lon="3.55937">
        <ele>597.56530235789</ele>
        <time>2015-11-28T12:53:36Z</time>
      </trkpt>
      <trkpt lat="43.76649" lon="3.55941">
        <ele>598.39184380106</ele>
        <time>2015-11-28T12:54:41Z</time>
      </trkpt>
      <trkpt lat="43.76654" lon="3.55938">
        <ele>598.39184380106</ele>
        <time>2015-11-28T12:54:41Z</time>
      </trkpt>
      <trkpt lat="43.76673" lon="3.55926">
        <ele>599.3231658005</ele>
        <time>2015-11-28T12:55:08Z</time>
      </trkpt>
      <trkpt lat="43.7668" lon="3.55918">
        <ele>600.30415702072</ele>
        <time>2015-11-28T12:55:08Z</time>
      </trkpt>
      <trkpt lat="43.76688" lon="3.55912">
        <ele>600.30415702072</ele>
        <time>2015-11-28T12:55:17Z</time>
      </trkpt>
      <trkpt lat="43.76691" lon="3.55909">
        <ele>601.31224386595</ele>
        <time>2015-11-28T12:55:18Z</time>
      </trkpt>
      <trkpt lat="43.76737" lon="3.55838">
        <ele>602.81624871</ele>
        <time>2015-11-28T12:56:34Z</time>
      </trkpt>
      <trkpt lat="43.76755" lon="3.55808">
        <ele>604.29789265202</ele>
        <time>2015-11-28T12:56:45Z</time>
      </trkpt>
      <trkpt lat="43.76755" lon="3.55807">
        <ele>604.29789265202</ele>
        <time>2015-11-28T12:56:46Z</time>
      </trkpt>
      <trkpt lat="43.76758" lon="3.55801">
        <ele>604.29789265202</ele>
        <time>2015-11-28T12:56:54Z</time>
      </trkpt>
      <trkpt lat="43.76768" lon="3.55719">
        <ele>605.88219083892</ele>
        <time>2015-11-28T12:57:45Z</time>
      </trkpt>
      <trkpt lat="43.76768" lon="3.55718">
        <ele>605.88219083892</ele>
        <time>2015-11-28T12:57:46Z</time>
      </trkpt>
      <trkpt lat="43.76729" lon="3.55692">
        <ele>607.35314946189</ele>
        <time>2015-11-28T12:58:32Z</time>
      </trkpt>
      <trkpt lat="43.76724" lon="3.55681">
        <ele>608.71265931638</ele>
        <time>2015-11-28T12:58:32Z</time>
      </trkpt>
      <trkpt lat="43.76716" lon="3.5568">
        <ele>608.71265931638</ele>
        <time>2015-11-28T12:58:36Z</time>
      </trkpt>
      <trkpt lat="43.767" lon="3.55676">
        <ele>609.96275248641</ele>
        <time>2015-11-28T12:59:00Z</time>
      </trkpt>
      <trkpt lat="43.76691" lon="3.55676">
        <ele>609.96275248641</ele>
        <time>2015-11-28T12:59:08Z</time>
      </trkpt>
      <trkpt lat="43.76688" lon="3.55671">
        <ele>611.06237392062</ele>
        <time>2015-11-28T12:59:08Z</time>
      </trkpt>
      <trkpt lat="43.76684" lon="3.55662">
        <ele>611.06237392062</ele>
        <time>2015-11-28T12:59:15Z</time>
      </trkpt>
      <trkpt lat="43.76684" lon="3.55659">
        <ele>612.08920266231</ele>
        <time>2015-11-28T12:59:16Z</time>
      </trkpt>
      <trkpt lat="43.76677" lon="3.55642">
        <ele>613.01456106748</ele>
        <time>2015-11-28T12:59:33Z</time>
      </trkpt>
      <trkpt lat="43.76674" lon="3.55633">
        <ele>613.01456106748</ele>
        <time>2015-11-28T12:59:33Z</time>
      </trkpt>
      <trkpt lat="43.76672" lon="3.55588">
        <ele>613.72573303204</ele>
        <time>2015-11-28T13:00:08Z</time>
      </trkpt>
      <trkpt lat="43.76676" lon="3.55568">
        <ele>614.24863186501</ele>
        <time>2015-11-28T13:00:08Z</time>
      </trkpt>
      <trkpt lat="43.7668" lon="3.55558">
        <ele>614.24863186501</ele>
        <time>2015-11-28T13:00:23Z</time>
      </trkpt>
      <trkpt lat="43.76689" lon="3.55551">
        <ele>614.23316312285</ele>
        <time>2015-11-28T13:00:26Z</time>
      </trkpt>
      <trkpt lat="43.76691" lon="3.55547">
        <ele>614.23316312285</ele>
        <time>2015-11-28T13:00:31Z</time>
      </trkpt>
      <trkpt lat="43.76693" lon="3.55541">
        <ele>614.23316312285</ele>
        <time>2015-11-28T13:00:36Z</time>
      </trkpt>
      <trkpt lat="43.76695" lon="3.55537">
        <ele>613.52945548585</ele>
        <time>2015-11-28T13:00:41Z</time>
      </trkpt>
      <trkpt lat="43.76699" lon="3.55522">
        <ele>612.70678566279</ele>
        <time>2015-11-28T13:01:08Z</time>
      </trkpt>
      <trkpt lat="43.76701" lon="3.55517">
        <ele>612.70678566279</ele>
        <time>2015-11-28T13:01:08Z</time>
      </trkpt>
      <trkpt lat="43.76691" lon="3.5552">
        <ele>611.61568318677</ele>
        <time>2015-11-28T13:01:44Z</time>
      </trkpt>
      <trkpt lat="43.76689" lon="3.55522">
        <ele>611.61568318677</ele>
        <time>2015-11-28T13:01:46Z</time>
      </trkpt>
      <trkpt lat="43.76676" lon="3.55547">
        <ele>610.40668835837</ele>
        <time>2015-11-28T13:02:24Z</time>
      </trkpt>
      <trkpt lat="43.76666" lon="3.55569">
        <ele>609.21966201121</ele>
        <time>2015-11-28T13:02:24Z</time>
      </trkpt>
      <trkpt lat="43.76648" lon="3.55625">
        <ele>607.78065849535</ele>
        <time>2015-11-28T13:03:22Z</time>
      </trkpt>
      <trkpt lat="43.7665" lon="3.55656">
        <ele>606.41304014225</ele>
        <time>2015-11-28T13:03:23Z</time>
      </trkpt>
      <trkpt lat="43.76652" lon="3.55691">
        <ele>604.5371601835</ele>
        <time>2015-11-28T13:04:06Z</time>
      </trkpt>
      <trkpt lat="43.76634" lon="3.5566">
        <ele>602.22265841271</ele>
        <time>2015-11-28T13:04:41Z</time>
      </trkpt>
      <trkpt lat="43.7661" lon="3.55593">
        <ele>599.17501209601</ele>
        <time>2015-11-28T13:05:41Z</time>
      </trkpt>
      <trkpt lat="43.76608" lon="3.55587">
        <ele>599.17501209601</ele>
        <time>2015-11-28T13:05:49Z</time>
      </trkpt>
      <trkpt lat="43.76604" lon="3.55567">
        <ele>596.18979972961</ele>
        <time>2015-11-28T13:06:00Z</time>
      </trkpt>
      <trkpt lat="43.76598" lon="3.55501">
        <ele>592.85106209039</ele>
        <time>2015-11-28T13:06:51Z</time>
      </trkpt>
      <trkpt lat="43.76564" lon="3.5547">
        <ele>588.77433834148</ele>
        <time>2015-11-28T13:07:47Z</time>
      </trkpt>
      <trkpt lat="43.76555" lon="3.55468">
        <ele>588.77433834148</ele>
        <time>2015-11-28T13:07:48Z</time>
      </trkpt>
      <trkpt lat="43.76469" lon="3.55449">
        <ele>583.08660761072</ele>
        <time>2015-11-28T13:09:41Z</time>
      </trkpt>
      <trkpt lat="43.76413" lon="3.55455">
        <ele>576.82802440255</ele>
        <time>2015-11-28T13:11:07Z</time>
      </trkpt>
      <trkpt lat="43.76388" lon="3.55412">
        <ele>568.98948119474</ele>
        <time>2015-11-28T13:12:11Z</time>
      </trkpt>
      <trkpt lat="43.76383" lon="3.55408">
        <ele>568.98948119474</ele>
        <time>2015-11-28T13:12:18Z</time>
      </trkpt>
      <trkpt lat="43.76343" lon="3.55395">
        <ele>561.47925321727</ele>
        <time>2015-11-28T13:12:56Z</time>
      </trkpt>
      <trkpt lat="43.76345" lon="3.55403">
        <ele>561.47925321727</ele>
        <time>2015-11-28T13:13:40Z</time>
      </trkpt>
      <trkpt lat="43.76345" lon="3.55405">
        <ele>561.47925321727</ele>
        <time>2015-11-28T13:13:41Z</time>
      </trkpt>
      <trkpt lat="43.76364" lon="3.55416">
        <ele>553.71529385669</ele>
        <time>2015-11-28T13:14:29Z</time>
      </trkpt>
      <trkpt lat="43.76376" lon="3.55439">
        <ele>546.2828448977</ele>
        <time>2015-11-28T13:15:00Z</time>
      </trkpt>
      <trkpt lat="43.76377" lon="3.55441">
        <ele>546.2828448977</ele>
        <time>2015-11-28T13:15:15Z</time>
      </trkpt>
      <trkpt lat="43.76247" lon="3.55427">
        <ele>536.78307074263</ele>
        <time>2015-11-28T13:17:41Z</time>
      </trkpt>
      <trkpt lat="43.76243" lon="3.55429">
        <ele>536.78307074263</ele>
        <time>2015-11-28T13:17:54Z</time>
      </trkpt>
      <trkpt lat="43.76242" lon="3.55429">
        <ele>536.78307074263</ele>
        <time>2015-11-28T13:17:56Z</time>
      </trkpt>
      <trkpt lat="43.7621" lon="3.55443">
        <ele>526.63042561579</ele>
        <time>2015-11-28T13:18:22Z</time>
      </trkpt>
      <trkpt lat="43.76175" lon="3.55481">
        <ele>516.43077651721</ele>
        <time>2015-11-28T13:19:16Z</time>
      </trkpt>
      <trkpt lat="43.76151" lon="3.55505">
        <ele>506.70197237883</ele>
        <time>2015-11-28T13:19:33Z</time>
      </trkpt>
      <trkpt lat="43.76147" lon="3.5551">
        <ele>506.70197237883</ele>
        <time>2015-11-28T13:19:36Z</time>
      </trkpt>
      <trkpt lat="43.76135" lon="3.55526">
        <ele>497.08620573696</ele>
        <time>2015-11-28T13:20:00Z</time>
      </trkpt>
      <trkpt lat="43.76126" lon="3.55537">
        <ele>487.49614009709</ele>
        <time>2015-11-28T13:20:25Z</time>
      </trkpt>
      <trkpt lat="43.76124" lon="3.55537">
        <ele>487.49614009709</ele>
        <time>2015-11-28T13:20:26Z</time>
      </trkpt>
      <trkpt lat="43.76079" lon="3.55563">
        <ele>477.95114516578</ele>
        <time>2015-11-28T13:21:00Z</time>
      </trkpt>
      <trkpt lat="43.76078" lon="3.55564">
        <ele>477.95114516578</ele>
        <time>2015-11-28T13:21:01Z</time>
      </trkpt>
      <trkpt lat="43.76071" lon="3.55572">
        <ele>468.8287796318</ele>
        <time>2015-11-28T13:21:22Z</time>
      </trkpt>
      <trkpt lat="43.76052" lon="3.55585">
        <ele>460.18890018212</ele>
        <time>2015-11-28T13:21:36Z</time>
      </trkpt>
      <trkpt lat="43.76024" lon="3.5564">
        <ele>451.66711752618</ele>
        <time>2015-11-28T13:22:28Z</time>
      </trkpt>
      <trkpt lat="43.76023" lon="3.55709">
        <ele>442.76637358233</ele>
        <time>2015-11-28T13:23:09Z</time>
      </trkpt>
      <trkpt lat="43.76025" lon="3.55714">
        <ele>442.76637358233</ele>
        <time>2015-11-28T13:23:11Z</time>
      </trkpt>
      <trkpt lat="43.76024" lon="3.55793">
        <ele>433.54539738241</ele>
        <time>2015-11-28T13:24:07Z</time>
      </trkpt>
      <trkpt lat="43.76026" lon="3.55802">
        <ele>433.54539738241</ele>
        <time>2015-11-28T13:24:07Z</time>
      </trkpt>
      <trkpt lat="43.75998" lon="3.55912">
        <ele>422.81954887458</ele>
        <time>2015-11-28T13:25:34Z</time>
      </trkpt>
      <trkpt lat="43.75991" lon="3.55927">
        <ele>412.88144095341</ele>
        <time>2015-11-28T13:25:35Z</time>
      </trkpt>
      <trkpt lat="43.75988" lon="3.55937">
        <ele>412.88144095341</ele>
        <time>2015-11-28T13:25:51Z</time>
      </trkpt>
      <trkpt lat="43.75984" lon="3.55948">
        <ele>403.69078457852</ele>
        <time>2015-11-28T13:25:51Z</time>
      </trkpt>
      <trkpt lat="43.75954" lon="3.56044">
        <ele>393.10351250963</ele>
        <time>2015-11-28T13:27:07Z</time>
      </trkpt>
      <trkpt lat="43.75951" lon="3.56045">
        <ele>393.10351250963</ele>
        <time>2015-11-28T13:27:11Z</time>
      </trkpt>
      <trkpt lat="43.75933" lon="3.56083">
        <ele>383.20028985086</ele>
        <time>2015-11-28T13:27:43Z</time>
      </trkpt>
      <trkpt lat="43.75897" lon="3.56155">
        <ele>373.39885996343</ele>
        <time>2015-11-28T13:28:37Z</time>
      </trkpt>
      <trkpt lat="43.7589" lon="3.56168">
        <ele>364.55670913122</ele>
        <time>2015-11-28T13:28:38Z</time>
      </trkpt>
      <trkpt lat="43.75854" lon="3.56167">
        <ele>354.69808844836</ele>
        <time>2015-11-28T13:29:36Z</time>
      </trkpt>
      <trkpt lat="43.75781" lon="3.56257">
        <ele>343.63749009998</ele>
        <time>2015-11-28T13:31:01Z</time>
      </trkpt>
      <trkpt lat="43.75776" lon="3.56263">
        <ele>343.63749009998</ele>
        <time>2015-11-28T13:31:08Z</time>
      </trkpt>
      <trkpt lat="43.75748" lon="3.56258">
        <ele>332.35868339341</ele>
        <time>2015-11-28T13:31:43Z</time>
      </trkpt>
      <trkpt lat="43.75729" lon="3.5627">
        <ele>321.97493017062</ele>
        <time>2015-11-28T13:32:04Z</time>
      </trkpt>
      <trkpt lat="43.7571" lon="3.56226">
        <ele>311.5258613274</ele>
        <time>2015-11-28T13:32:52Z</time>
      </trkpt>
      <trkpt lat="43.75709" lon="3.56222">
        <ele>311.5258613274</ele>
        <time>2015-11-28T13:32:53Z</time>
      </trkpt>
      <trkpt lat="43.75661" lon="3.56216">
        <ele>302.10997183515</ele>
        <time>2015-11-28T13:33:32Z</time>
      </trkpt>
      <trkpt lat="43.75659" lon="3.56216">
        <ele>302.10997183515</ele>
        <time>2015-11-28T13:33:36Z</time>
      </trkpt>
      <trkpt lat="43.75646" lon="3.56217">
        <ele>293.77602823793</ele>
        <time>2015-11-28T13:33:57Z</time>
      </trkpt>
      <trkpt lat="43.75633" lon="3.56222">
        <ele>286.5367853942</ele>
        <time>2015-11-28T13:33:58Z</time>
      </trkpt>
      <trkpt lat="43.75637" lon="3.56257">
        <ele>279.95369934706</ele>
        <time>2015-11-28T13:34:31Z</time>
      </trkpt>
      <trkpt lat="43.75634" lon="3.56292">
        <ele>274.2089436136</ele>
        <time>2015-11-28T13:35:13Z</time>
      </trkpt>
      <trkpt lat="43.75628" lon="3.56299">
        <ele>274.2089436136</ele>
        <time>2015-11-28T13:35:13Z</time>
      </trkpt>
      <trkpt lat="43.75618" lon="3.56309">
        <ele>269.45407402131</ele>
        <time>2015-11-28T13:35:21Z</time>
      </trkpt>
      <trkpt lat="43.75607" lon="3.56358">
        <ele>265.53808748359</ele>
        <time>2015-11-28T13:35:56Z</time>
      </trkpt>
      <trkpt lat="43.75571" lon="3.56372">
        <ele>260.90605256149</ele>
        <time>2015-11-28T13:37:25Z</time>
      </trkpt>
      <trkpt lat="43.75568" lon="3.56396">
        <ele>255.81945328249</ele>
        <time>2015-11-28T13:37:54Z</time>
      </trkpt>
      <trkpt lat="43.75572" lon="3.56402">
        <ele>255.81945328249</ele>
        <time>2015-11-28T13:37:56Z</time>
      </trkpt>
      <trkpt lat="43.75583" lon="3.56415">
        <ele>251.40063730741</ele>
        <time>2015-11-28T13:38:11Z</time>
      </trkpt>
      <trkpt lat="43.75594" lon="3.5644">
        <ele>247.5056851265</ele>
        <time>2015-11-28T13:38:42Z</time>
      </trkpt>
      <trkpt lat="43.75594" lon="3.56437">
        <ele>247.5056851265</ele>
        <time>2015-11-28T13:38:42Z</time>
      </trkpt>
      <trkpt lat="43.75587" lon="3.56422">
        <ele>243.55284323942</ele>
        <time>2015-11-28T13:39:01Z</time>
      </trkpt>
      <trkpt lat="43.75586" lon="3.56421">
        <ele>243.55284323942</ele>
        <time>2015-11-28T13:39:40Z</time>
      </trkpt>
      <trkpt lat="43.75574" lon="3.56444">
        <ele>239.00310499635</ele>
        <time>2015-11-28T13:40:08Z</time>
      </trkpt>
      <trkpt lat="43.75572" lon="3.56444">
        <ele>239.00310499635</ele>
        <time>2015-11-28T13:40:08Z</time>
      </trkpt>
      <trkpt lat="43.75563" lon="3.56458">
        <ele>234.74208976596</ele>
        <time>2015-11-28T13:40:43Z</time>
      </trkpt>
      <trkpt lat="43.75562" lon="3.56459">
        <ele>234.74208976596</ele>
        <time>2015-11-28T13:40:43Z</time>
      </trkpt>
      <trkpt lat="43.75561" lon="3.5646">
        <ele>234.74208976596</ele>
        <time>2015-11-28T13:40:50Z</time>
      </trkpt>
      <trkpt lat="43.75551" lon="3.56474">
        <ele>230.76804305659</ele>
        <time>2015-11-28T13:41:19Z</time>
      </trkpt>
      <trkpt lat="43.75551" lon="3.56473">
        <ele>230.76804305659</ele>
        <time>2015-11-28T13:41:21Z</time>
      </trkpt>
      <trkpt lat="43.75533" lon="3.56474">
        <ele>226.71821765792</ele>
        <time>2015-11-28T13:42:17Z</time>
      </trkpt>
      <trkpt lat="43.75532" lon="3.56489">
        <ele>223.26549894901</ele>
        <time>2015-11-28T13:42:17Z</time>
      </trkpt>
      <trkpt lat="43.75484" lon="3.56458">
        <ele>217.78918974537</ele>
        <time>2015-11-28T13:44:18Z</time>
      </trkpt>
      <trkpt lat="43.75478" lon="3.56453">
        <ele>217.78918974537</ele>
        <time>2015-11-28T13:44:18Z</time>
      </trkpt>
      <trkpt lat="43.75425" lon="3.56366">
        <ele>212.13252358211</ele>
        <time>2015-11-28T13:45:30Z</time>
      </trkpt>
      <trkpt lat="43.75424" lon="3.56366">
        <ele>212.13252358211</ele>
        <time>2015-11-28T13:45:31Z</time>
      </trkpt>
      <trkpt lat="43.75403" lon="3.56347">
        <ele>207.22570630322</ele>
        <time>2015-11-28T13:45:50Z</time>
      </trkpt>
      <trkpt lat="43.75385" lon="3.56345">
        <ele>203.16480619246</ele>
        <time>2015-11-28T13:46:15Z</time>
      </trkpt>
      <trkpt lat="43.75301" lon="3.56277">
        <ele>196.88052646469</ele>
        <time>2015-11-28T13:48:12Z</time>
      </trkpt>
      <trkpt lat="43.75288" lon="3.5628">
        <ele>191.09807873837</ele>
        <time>2015-11-28T13:48:41Z</time>
      </trkpt>
      <trkpt lat="43.75238" lon="3.56246">
        <ele>185.86248401529</ele>
        <time>2015-11-28T13:49:31Z</time>
      </trkpt>
      <trkpt lat="43.75219" lon="3.56223">
        <ele>181.35816372191</ele>
        <time>2015-11-28T13:50:00Z</time>
      </trkpt>
      <trkpt lat="43.75163" lon="3.5616">
        <ele>176.3273773428</ele>
        <time>2015-11-28T13:50:58Z</time>
      </trkpt>
      <trkpt lat="43.75152" lon="3.56146">
        <ele>171.89776886443</ele>
        <time>2015-11-28T13:51:36Z</time>
      </trkpt>
      <trkpt lat="43.75124" lon="3.56137">
        <ele>168.21912937145</ele>
        <time>2015-11-28T13:51:53Z</time>
      </trkpt>
      <trkpt lat="43.75065" lon="3.5612">
        <ele>164.54923297952</ele>
        <time>2015-11-28T13:52:27Z</time>
      </trkpt>
      <trkpt lat="43.75054" lon="3.56124">
        <ele>161.23813827013</ele>
        <time>2015-11-28T13:52:27Z</time>
      </trkpt>
      <trkpt lat="43.75046" lon="3.56136">
        <ele>157.35561407852</ele>
        <time>2015-11-28T13:52:51Z</time>
      </trkpt>
      <trkpt lat="43.75041" lon="3.56117">
        <ele>153.61239077837</ele>
        <time>2015-11-28T13:53:09Z</time>
      </trkpt>
      <trkpt lat="43.75041" lon="3.56115">
        <ele>153.61239077837</ele>
        <time>2015-11-28T13:53:11Z</time>
      </trkpt>
      <trkpt lat="43.7504" lon="3.56104">
        <ele>149.91744428574</ele>
        <time>2015-11-28T13:53:27Z</time>
      </trkpt>
      <trkpt lat="43.75037" lon="3.56104">
        <ele>149.91744428574</ele>
        <time>2015-11-28T13:53:31Z</time>
      </trkpt>
      <trkpt lat="43.75034" lon="3.56095">
        <ele>145.95595735116</ele>
        <time>2015-11-28T13:54:06Z</time>
      </trkpt>
      <trkpt lat="43.75029" lon="3.56098">
        <ele>145.95595735116</ele>
        <time>2015-11-28T13:54:06Z</time>
      </trkpt>
      <trkpt lat="43.75017" lon="3.56124">
        <ele>141.58133790095</ele>
        <time>2015-11-28T13:55:05Z</time>
      </trkpt>
      <trkpt lat="43.74962" lon="3.56189">
        <ele>136.70239825937</ele>
        <time>2015-11-28T13:55:57Z</time>
      </trkpt>
      <trkpt lat="43.74958" lon="3.56188">
        <ele>136.70239825937</ele>
        <time>2015-11-28T13:55:57Z</time>
      </trkpt>
      <trkpt lat="43.74891" lon="3.5615">
        <ele>131.55335225848</ele>
        <time>2015-11-28T13:57:09Z</time>
      </trkpt>
      <trkpt lat="43.74885" lon="3.56142">
        <ele>131.55335225848</ele>
        <time>2015-11-28T13:57:09Z</time>
      </trkpt>
      <trkpt lat="43.74873" lon="3.56132">
        <ele>126.51072902991</ele>
        <time>2015-11-28T13:57:26Z</time>
      </trkpt>
      <trkpt lat="43.74864" lon="3.56129">
        <ele>121.95215756825</ele>
        <time>2015-11-28T13:57:34Z</time>
      </trkpt>
      <trkpt lat="43.74831" lon="3.56098">
        <ele>116.09355139349</ele>
        <time>2015-11-28T13:58:09Z</time>
      </trkpt>
      <trkpt lat="43.74829" lon="3.56097">
        <ele>116.09355139349</ele>
        <time>2015-11-28T13:58:11Z</time>
      </trkpt>
      <trkpt lat="43.74822" lon="3.56096">
        <ele>116.09355139349</ele>
        <time>2015-11-28T13:58:16Z</time>
      </trkpt>
      <trkpt lat="43.74814" lon="3.56091">
        <ele>110.39854984569</ele>
        <time>2015-11-28T13:58:26Z</time>
      </trkpt>
      <trkpt lat="43.74809" lon="3.56088">
        <ele>110.39854984569</ele>
        <time>2015-11-28T13:58:31Z</time>
      </trkpt>
      <trkpt lat="43.74805" lon="3.56083">
        <ele>105.14219215509</ele>
        <time>2015-11-28T13:58:36Z</time>
      </trkpt>
      <trkpt lat="43.74794" lon="3.56077">
        <ele>100.1603616131</ele>
        <time>2015-11-28T13:58:54Z</time>
      </trkpt>
      <trkpt lat="43.74749" lon="3.56093">
        <ele>95.156307734628</ele>
        <time>2015-11-28T13:59:38Z</time>
      </trkpt>
      <trkpt lat="43.74739" lon="3.56097">
        <ele>90.734404420536</ele>
        <time>2015-11-28T13:59:38Z</time>
      </trkpt>
      <trkpt lat="43.74728" lon="3.561">
        <ele>86.876731686474</ele>
        <time>2015-11-28T13:59:47Z</time>
      </trkpt>
      <trkpt lat="43.74633" lon="3.56211">
        <ele>83.075304139474</ele>
        <time>2015-11-28T14:01:26Z</time>
      </trkpt>
      <trkpt lat="43.74637" lon="3.56273">
        <ele>80.084420362743</ele>
        <time>2015-11-28T14:02:04Z</time>
      </trkpt>
      <trkpt lat="43.74642" lon="3.56282">
        <ele>80.084420362743</ele>
        <time>2015-11-28T14:02:07Z</time>
      </trkpt>
      <trkpt lat="43.74573" lon="3.56292">
        <ele>77.721802299364</ele>
        <time>2015-11-28T14:03:54Z</time>
      </trkpt>
      <trkpt lat="43.74548" lon="3.56299">
        <ele>75.946693676875</ele>
        <time>2015-11-28T14:04:20Z</time>
      </trkpt>
      <trkpt lat="43.74454" lon="3.56308">
        <ele>74.820768208055</ele>
        <time>2015-11-28T14:05:26Z</time>
      </trkpt>
      <trkpt lat="43.74422" lon="3.5635">
        <ele>73.621368973236</ele>
        <time>2015-11-28T14:06:02Z</time>
      </trkpt>
      <trkpt lat="43.74422" lon="3.56355">
        <ele>73.621368973236</ele>
        <time>2015-11-28T14:06:06Z</time>
      </trkpt>
      <trkpt lat="43.7442" lon="3.56374">
        <ele>72.385513514237</ele>
        <time>2015-11-28T14:06:16Z</time>
      </trkpt>
      <trkpt lat="43.7442" lon="3.56385">
        <ele>72.385513514237</ele>
        <time>2015-11-28T14:06:21Z</time>
      </trkpt>
      <trkpt lat="43.74418" lon="3.56398">
        <ele>71.003744885422</ele>
        <time>2015-11-28T14:06:31Z</time>
      </trkpt>
      <trkpt lat="43.74418" lon="3.56404">
        <ele>71.003744885422</ele>
        <time>2015-11-28T14:06:36Z</time>
      </trkpt>
      <trkpt lat="43.74416" lon="3.56416">
        <ele>69.908536117056</ele>
        <time>2015-11-28T14:06:46Z</time>
      </trkpt>
      <trkpt lat="43.74414" lon="3.56422">
        <ele>69.908536117056</ele>
        <time>2015-11-28T14:06:51Z</time>
      </trkpt>
      <trkpt lat="43.74345" lon="3.56512">
        <ele>69.341547409837</ele>
        <time>2015-11-28T14:08:16Z</time>
      </trkpt>
      <trkpt lat="43.74344" lon="3.5655">
        <ele>68.83376690308</ele>
        <time>2015-11-28T14:08:37Z</time>
      </trkpt>
      <trkpt lat="43.74347" lon="3.56564">
        <ele>68.743390350688</ele>
        <time>2015-11-28T14:09:11Z</time>
      </trkpt>
      <trkpt lat="43.7435" lon="3.56615">
        <ele>68.954708143776</ele>
        <time>2015-11-28T14:09:11Z</time>
      </trkpt>
      <trkpt lat="43.7435" lon="3.56621">
        <ele>68.954708143776</ele>
        <time>2015-11-28T14:09:23Z</time>
      </trkpt>
    </trkseg>
  </trk>
</gpx>